CheckWX is a tool to help pilots better visualize weather data.  It is not intended as a substitute for an official pre-flight weather briefing.

07:53:40 UTC

KPQI METAR
Northern Maine Regional Arpt at Presque Is Airport
Presque Isle, Maine, USA
Current

58 mins ago

KPQI 290656Z AUTO 20007KT 10SM CLR 21/18 A2988 RMK AO2 SLP139 T02110183
Observed
May-29 @ 06:56 UTC
Wind
  • 200° at 7 KTS
Visibility
Flight Rules
VFR
Cloud Levels
  • Clear skies
Temperature
21°C / 70°F
Dewpoint
18°C / 64°F
Humidity
83%
Altimeter
29.88" Hg
Pressure
1011.82 hPa
Previous

2 hours ago

KPQI 290556Z AUTO 19008KT 10SM SCT120 22/18 A2989 RMK AO2 SLP141 T02170183 10278 20217 56010
Observed
May-29 @ 05:56 UTC
Wind
  • 190° at 8 KTS
Visibility
Flight Rules
VFR
Cloud Levels
  • Scattered at 12,000' AGL
Temperature
22°C / 72°F
Dewpoint
18°C / 64°F
Humidity
78%
Altimeter
29.89" Hg
Pressure
1012.22 hPa
Previous

3 hours ago

KPQI 290456Z AUTO 20006KT 10SM CLR 23/19 A2990 RMK AO2 SLP144 T02280194 403220167
Observed
May-29 @ 04:56 UTC
Wind
  • 200° at 6 KTS
Visibility
Flight Rules
VFR
Cloud Levels
  • Clear skies
Dewpoint
19°C / 66°F
Humidity
78%
Altimeter
29.9" Hg
Pressure
1012.52 hPa